sensor_id;sensor_type;location;lat;lon;timestamp;pressure;altitude;pressure_sealevel;temperature;humidity
35577;BME280;21680;52.400;16.920;2022-11-25T00:01:23;100764.02;;;1.83;90.32
35577;BME280;21680;52.400;16.920;2022-11-25T00:03:49;100758.05;;;1.80;90.23
35577;BME280;21680;52.400;16.920;2022-11-25T00:06:18;100757.36;;;1.77;90.25
35577;BME280;21680;52.400;16.920;2022-11-25T00:08:45;100759.13;;;1.77;90.24
35577;BME280;21680;52.400;16.920;2022-11-25T00:11:11;100762.84;;;1.74;90.19
35577;BME280;21680;52.400;16.920;2022-11-25T00:13:37;100756.19;;;1.64;90.08
35577;BME280;21680;52.400;16.920;2022-11-25T00:16:05;100758.50;;;1.60;90.17
35577;BME280;21680;52.400;16.920;2022-11-25T00:18:31;100754.83;;;1.57;90.22
35577;BME280;21680;52.400;16.920;2022-11-25T00:20:57;100756.08;;;1.53;90.17
35577;BME280;21680;52.400;16.920;2022-11-25T00:23:23;100753.97;;;1.52;90.23
35577;BME280;21680;52.400;16.920;2022-11-25T00:25:49;100750.10;;;1.50;90.34
35577;BME280;21680;52.400;16.920;2022-11-25T00:28:14;100752.75;;;1.50;90.52
35577;BME280;21680;52.400;16.920;2022-11-25T00:30:39;100753.45;;;1.50;90.35
35577;BME280;21680;52.400;16.920;2022-11-25T00:33:04;100755.56;;;1.51;90.55
35577;BME280;21680;52.400;16.920;2022-11-25T00:35:30;100759.09;;;1.50;90.56
35577;BME280;21680;52.400;16.920;2022-11-25T00:37:55;100752.74;;;1.49;90.65
35577;BME280;21680;52.400;16.920;2022-11-25T00:40:20;100754.67;;;1.51;90.65
35577;BME280;21680;52.400;16.920;2022-11-25T00:42:46;100755.04;;;1.51;90.54
35577;BME280;21680;52.400;16.920;2022-11-25T00:45:30;100756.45;;;1.49;90.53
35577;BME280;21680;52.400;16.920;2022-11-25T00:47:55;100753.80;;;1.51;90.78
35577;BME280;21680;52.400;16.920;2022-11-25T00:50:20;100756.43;;;1.52;90.81
35577;BME280;21680;52.400;16.920;2022-11-25T00:52:46;100757.84;;;1.53;90.63
35577;BME280;21680;52.400;16.920;2022-11-25T00:55:11;100764.36;;;1.51;90.68
35577;BME280;21680;52.400;16.920;2022-11-25T00:57:36;100765.23;;;1.52;90.72
35577;BME280;21680;52.400;16.920;2022-11-25T01:00:03;100772.46;;;1.50;90.61
35577;BME280;21680;52.400;16.920;2022-11-25T01:02:28;100772.30;;;1.50;90.61
35577;BME280;21680;52.400;16.920;2022-11-25T01:04:54;100778.11;;;1.48;90.45
35577;BME280;21680;52.400;16.920;2022-11-25T01:07:19;100778.84;;;1.42;90.38
35577;BME280;21680;52.400;16.920;2022-11-25T01:09:44;100777.11;;;1.34;90.40
35577;BME280;21680;52.400;16.920;2022-11-25T01:12:09;100775.71;;;1.30;90.52
35577;BME280;21680;52.400;16.920;2022-11-25T01:14:35;100775.01;;;1.29;90.90
35577;BME280;21680;52.400;16.920;2022-11-25T01:17:01;100773.95;;;1.31;90.69
35577;BME280;21680;52.400;16.920;2022-11-25T01:19:26;100772.19;;;1.32;90.71
35577;BME280;21680;52.400;16.920;2022-11-25T01:21:52;100773.23;;;1.33;90.89
35577;BME280;21680;52.400;16.920;2022-11-25T01:24:17;100775.70;;;1.36;90.94
35577;BME280;21680;52.400;16.920;2022-11-25T01:26:43;100774.30;;;1.35;90.86
35577;BME280;21680;52.400;16.920;2022-11-25T01:29:13;100778.70;;;1.32;90.84
35577;BME280;21680;52.400;16.920;2022-11-25T01:31:39;100784.20;;;1.22;90.62
35577;BME280;21680;52.400;16.920;2022-11-25T01:34:16;100784.91;;;1.18;90.66
35577;BME280;21680;52.400;16.920;2022-11-25T01:36:42;100786.33;;;1.12;90.64
35577;BME280;21680;52.400;16.920;2022-11-25T01:39:10;100784.41;;;1.10;90.88
35577;BME280;21680;52.400;16.920;2022-11-25T01:41:37;100795.49;;;1.09;91.05
35577;BME280;21680;52.400;16.920;2022-11-25T01:49:38;100794.97;;;1.07;91.15
35577;BME280;21680;52.400;16.920;2022-11-25T01:52:10;100790.23;;;1.06;91.02
35577;BME280;21680;52.400;16.920;2022-11-25T01:54:46;100791.29;;;1.01;91.06
35577;BME280;21680;52.400;16.920;2022-11-25T01:57:18;100793.94;;;0.95;90.91
35577;BME280;21680;52.400;16.920;2022-11-25T01:59:49;100790.60;;;0.91;90.99
35577;BME280;21680;52.400;16.920;2022-11-25T02:02:16;100791.14;;;0.91;91.05
35577;BME280;21680;52.400;16.920;2022-11-25T02:04:42;100791.66;;;0.91;91.14
35577;BME280;21680;52.400;16.920;2022-11-25T02:07:14;100795.36;;;0.90;91.05
35577;BME280;21680;52.400;16.920;2022-11-25T02:09:42;100793.08;;;0.88;91.19
35577;BME280;21680;52.400;16.920;2022-11-25T02:12:08;100795.18;;;0.89;91.23
35577;BME280;21680;52.400;16.920;2022-11-25T02:14:34;100795.36;;;0.88;91.15
35577;BME280;21680;52.400;16.920;2022-11-25T02:17:00;100800.81;;;0.88;91.29
35577;BME280;21680;52.400;16.920;2022-11-25T02:19:47;100802.40;;;0.91;91.33
35577;BME280;21680;52.400;16.920;2022-11-25T02:27:38;100798.88;;;0.89;91.48
35577;BME280;21680;52.400;16.920;2022-11-25T02:30:05;100800.98;;;0.90;91.37
35577;BME280;21680;52.400;16.920;2022-11-25T02:32:30;100802.39;;;0.89;91.31
35577;BME280;21680;52.400;16.920;2022-11-25T02:34:55;100800.28;;;0.90;91.40
35577;BME280;21680;52.400;16.920;2022-11-25T02:37:22;100804.67;;;0.91;91.43
35577;BME280;21680;52.400;16.920;2022-11-25T02:39:49;100805.38;;;0.93;91.61
35577;BME280;21680;52.400;16.920;2022-11-25T02:42:17;100808.02;;;0.97;91.67
35577;BME280;21680;52.400;16.920;2022-11-25T02:44:44;100797.45;;;0.99;91.49
35577;BME280;21680;52.400;16.920;2022-11-25T02:47:10;100794.63;;;0.98;91.48
35577;BME280;21680;52.400;16.920;2022-11-25T02:49:35;100790.23;;;1.00;91.55
35577;BME280;21680;52.400;16.920;2022-11-25T02:52:00;100792.34;;;1.03;91.76
35577;BME280;21680;52.400;16.920;2022-11-25T02:54:26;100792.69;;;1.05;91.65
35577;BME280;21680;52.400;16.920;2022-11-25T02:56:51;100793.55;;;1.07;91.74
35577;BME280;21680;52.400;16.920;2022-11-25T02:59:16;100796.02;;;1.09;91.79
35577;BME280;21680;52.400;16.920;2022-11-25T03:01:41;100797.24;;;1.12;91.82
35577;BME280;21680;52.400;16.920;2022-11-25T03:04:07;100783.34;;;1.16;91.93
35577;BME280;21680;52.400;16.920;2022-11-25T03:06:32;100787.90;;;1.18;91.85
35577;BME280;21680;52.400;16.920;2022-11-25T03:08:57;100791.95;;;1.18;91.79
35577;BME280;21680;52.400;16.920;2022-11-25T03:11:23;100796.35;;;1.18;91.72
35577;BME280;21680;52.400;16.920;2022-11-25T03:14:08;100802.69;;;1.18;91.80
35577;BME280;21680;52.400;16.920;2022-11-25T03:16:33;100806.23;;;1.10;91.64
35577;BME280;21680;52.400;16.920;2022-11-25T03:18:58;100805.01;;;1.03;91.51
35577;BME280;21680;52.400;16.920;2022-11-25T03:21:23;100802.19;;;1.04;91.89
35577;BME280;21680;52.400;16.920;2022-11-25T03:23:49;100802.89;;;1.07;91.83
35577;BME280;21680;52.400;16.920;2022-11-25T03:26:14;100804.65;;;1.06;91.82
35577;BME280;21680;52.400;16.920;2022-11-25T03:28:39;100804.65;;;1.06;91.94
35577;BME280;21680;52.400;16.920;2022-11-25T03:31:09;100803.24;;;1.05;92.07
35577;BME280;21680;52.400;16.920;2022-11-25T03:33:35;100804.83;;;1.06;92.02
35577;BME280;21680;52.400;16.920;2022-11-25T03:36:00;100807.65;;;1.04;91.98
35577;BME280;21680;52.400;16.920;2022-11-25T03:38:25;100808.34;;;1.06;91.90
35577;BME280;21680;52.400;16.920;2022-11-25T03:40:50;100808.87;;;1.07;92.13
35577;BME280;21680;52.400;16.920;2022-11-25T03:43:16;100809.76;;;1.06;91.98
35577;BME280;21680;52.400;16.920;2022-11-25T03:45:41;100805.89;;;1.03;91.89
35577;BME280;21680;52.400;16.920;2022-11-25T03:48:06;100802.89;;;1.04;91.93
35577;BME280;21680;52.400;16.920;2022-11-25T03:50:31;100801.84;;;1.06;92.25
35577;BME280;21680;52.400;16.920;2022-11-25T03:52:57;100804.66;;;1.08;92.29
35577;BME280;21680;52.400;16.920;2022-11-25T03:55:22;100804.11;;;1.09;92.21
35577;BME280;21680;52.400;16.920;2022-11-25T03:57:47;100807.81;;;1.10;92.26
35577;BME280;21680;52.400;16.920;2022-11-25T04:00:13;100813.25;;;1.13;92.30
35577;BME280;21680;52.400;16.920;2022-11-25T04:02:38;100811.33;;;1.14;92.19
35577;BME280;21680;52.400;16.920;2022-11-25T04:05:04;100805.69;;;1.15;92.32
35577;BME280;21680;52.400;16.920;2022-11-25T04:07:30;100804.45;;;1.17;92.25
35577;BME280;21680;52.400;16.920;2022-11-25T04:09:55;100805.85;;;1.19;92.21
35577;BME280;21680;52.400;16.920;2022-11-25T04:12:20;100797.23;;;1.21;92.42
35577;BME280;21680;52.400;16.920;2022-11-25T04:15:05;100804.79;;;1.22;92.20
35577;BME280;21680;52.400;16.920;2022-11-25T04:17:30;100809.55;;;1.20;92.07
35577;BME280;21680;52.400;16.920;2022-11-25T04:19:55;100807.96;;;1.19;92.25
35577;BME280;21680;52.400;16.920;2022-11-25T04:22:21;100817.64;;;1.20;92.34
35577;BME280;21680;52.400;16.920;2022-11-25T04:24:46;100826.27;;;1.20;92.35
35577;BME280;21680;52.400;16.920;2022-11-25T04:27:11;100832.08;;;1.18;92.37
35577;BME280;21680;52.400;16.920;2022-11-25T04:29:36;100833.31;;;1.15;92.33
35577;BME280;21680;52.400;16.920;2022-11-25T04:32:02;100833.31;;;1.14;92.21
35577;BME280;21680;52.400;16.920;2022-11-25T04:34:27;100837.38;;;1.11;92.22
35577;BME280;21680;52.400;16.920;2022-11-25T04:36:52;100843.89;;;1.10;92.42
35577;BME280;21680;52.400;16.920;2022-11-25T04:39:18;100840.02;;;1.08;92.37
35577;BME280;21680;52.400;16.920;2022-11-25T04:41:43;100839.33;;;1.06;92.28
35577;BME280;21680;52.400;16.920;2022-11-25T04:44:09;100837.04;;;1.01;92.23
35577;BME280;21680;52.400;16.920;2022-11-25T04:46:37;100840.03;;;0.96;92.28
35577;BME280;21680;52.400;16.920;2022-11-25T04:49:03;100837.39;;;0.95;92.29
35577;BME280;21680;52.400;16.920;2022-11-25T04:51:29;100836.17;;;0.91;92.24
35577;BME280;21680;52.400;16.920;2022-11-25T04:53:54;100831.95;;;0.89;92.35
35577;BME280;21680;52.400;16.920;2022-11-25T04:56:21;100836.16;;;0.91;92.46
35577;BME280;21680;52.400;16.920;2022-11-25T04:58:46;100838.29;;;0.93;92.39
35577;BME280;21680;52.400;16.920;2022-11-25T05:01:30;100837.39;;;0.93;92.49
35577;BME280;21680;52.400;16.920;2022-11-25T05:03:55;100833.70;;;0.93;92.52
35577;BME280;21680;52.400;16.920;2022-11-25T05:06:21;100833.70;;;0.94;92.59
35577;BME280;21680;52.400;16.920;2022-11-25T05:08:49;100833.88;;;0.94;92.47
35577;BME280;21680;52.400;16.920;2022-11-25T05:11:15;100830.19;;;0.96;92.54
35577;BME280;21680;52.400;16.920;2022-11-25T05:13:41;100829.65;;;0.97;92.48
35577;BME280;21680;52.400;16.920;2022-11-25T05:16:06;100831.05;;;0.96;92.56
35577;BME280;21680;52.400;16.920;2022-11-25T05:18:32;100836.16;;;0.94;92.58
35577;BME280;21680;52.400;16.920;2022-11-25T05:21:01;100837.40;;;0.90;92.60
35577;BME280;21680;52.400;16.920;2022-11-25T05:23:27;100828.77;;;0.91;92.57
35577;BME280;21680;52.400;16.920;2022-11-25T05:26:01;100828.60;;;0.92;92.61
35577;BME280;21680;52.400;16.920;2022-11-25T05:28:27;100832.83;;;0.96;92.57
35577;BME280;21680;52.400;16.920;2022-11-25T05:30:52;100833.69;;;0.99;92.63
35577;BME280;21680;52.400;16.920;2022-11-25T05:33:18;100842.48;;;0.99;92.47
35577;BME280;21680;52.400;16.920;2022-11-25T05:35:43;100840.20;;;0.97;92.53
35577;BME280;21680;52.400;16.920;2022-11-25T05:38:08;100845.48;;;0.99;92.70
35577;BME280;21680;52.400;16.920;2022-11-25T05:40:33;100846.71;;;0.99;92.50
35577;BME280;21680;52.400;16.920;2022-11-25T05:42:59;100847.77;;;1.01;92.67
35577;BME280;21680;52.400;16.920;2022-11-25T05:45:26;100846.00;;;1.01;92.61
35577;BME280;21680;52.400;16.920;2022-11-25T05:47:51;100841.44;;;1.02;92.66
35577;BME280;21680;52.400;16.920;2022-11-25T05:50:19;100845.13;;;0.98;92.46
35577;BME280;21680;52.400;16.920;2022-11-25T05:52:44;100845.30;;;0.96;92.62
35577;BME280;21680;52.400;16.920;2022-11-25T05:55:10;100851.83;;;0.94;92.60
35577;BME280;21680;52.400;16.920;2022-11-25T05:57:35;100847.77;;;0.94;92.67
35577;BME280;21680;52.400;16.920;2022-11-25T06:00:00;100847.61;;;0.94;92.52
35577;BME280;21680;52.400;16.920;2022-11-25T06:02:25;100857.80;;;0.94;92.61
35577;BME280;21680;52.400;16.920;2022-11-25T06:04:51;100855.34;;;0.97;92.65
35577;BME280;21680;52.400;16.920;2022-11-25T06:07:16;100857.61;;;1.00;92.90
35577;BME280;21680;52.400;16.920;2022-11-25T06:09:41;100851.28;;;1.02;92.90
35577;BME280;21680;52.400;16.920;2022-11-25T06:12:06;100846.70;;;1.04;92.79
35577;BME280;21680;52.400;16.920;2022-11-25T06:14:32;100848.99;;;1.05;92.85
35577;BME280;21680;52.400;16.920;2022-11-25T06:16:57;100850.05;;;1.08;92.74
35577;BME280;21680;52.400;16.920;2022-11-25T06:19:22;100851.27;;;1.10;92.88
35577;BME280;21680;52.400;16.920;2022-11-25T06:21:47;100856.20;;;1.10;92.68
35577;BME280;21680;52.400;16.920;2022-11-25T06:24:13;100860.79;;;1.08;92.75
35577;BME280;21680;52.400;16.920;2022-11-25T06:26:38;100870.11;;;1.08;92.74
35577;BME280;21680;52.400;16.920;2022-11-25T06:29:03;100876.45;;;1.05;92.72
35577;BME280;21680;52.400;16.920;2022-11-25T06:31:29;100874.16;;;0.98;92.57
35577;BME280;21680;52.400;16.920;2022-11-25T06:33:54;100870.81;;;1.00;92.79
35577;BME280;21680;52.400;16.920;2022-11-25T06:36:20;100875.04;;;1.03;93.02
35577;BME280;21680;52.400;16.920;2022-11-25T06:38:48;100879.61;;;1.05;92.92
35577;BME280;21680;52.400;16.920;2022-11-25T06:41:15;100882.77;;;1.04;92.78
35577;BME280;21680;52.400;16.920;2022-11-25T06:43:40;100882.95;;;1.06;92.89
35577;BME280;21680;52.400;16.920;2022-11-25T06:46:11;100885.06;;;1.09;92.99
35577;BME280;21680;52.400;16.920;2022-11-25T06:48:38;100889.30;;;1.12;92.91
35577;BME280;21680;52.400;16.920;2022-11-25T06:51:05;100889.11;;;1.12;92.77
35577;BME280;21680;52.400;16.920;2022-11-25T06:53:31;100892.27;;;1.12;92.70
35577;BME280;21680;52.400;16.920;2022-11-25T06:56:25;100886.47;;;1.12;92.89
35577;BME280;21680;52.400;16.920;2022-11-25T06:58:51;100891.58;;;1.13;92.85
35577;BME280;21680;52.400;16.920;2022-11-25T07:01:19;100888.76;;;1.13;92.90
35577;BME280;21680;52.400;16.920;2022-11-25T07:03:46;100888.23;;;1.15;92.89
35577;BME280;21680;52.400;16.920;2022-11-25T07:06:13;100892.80;;;1.16;93.01
35577;BME280;21680;52.400;16.920;2022-11-25T07:08:40;100897.02;;;1.17;92.85
35577;BME280;21680;52.400;16.920;2022-11-25T07:11:18;100896.31;;;1.19;92.96
35577;BME280;21680;52.400;16.920;2022-11-25T07:13:45;100897.55;;;1.21;93.08
35577;BME280;21680;52.400;16.920;2022-11-25T07:16:11;100899.84;;;1.22;93.03
35577;BME280;21680;52.400;16.920;2022-11-25T07:18:37;100902.83;;;1.20;93.05
35577;BME280;21680;52.400;16.920;2022-11-25T07:21:05;100904.05;;;1.20;92.99
35577;BME280;21680;52.400;16.920;2022-11-25T07:23:32;100903.70;;;1.21;93.08
35577;BME280;21680;52.400;16.920;2022-11-25T07:26:06;100908.29;;;1.20;92.89
35577;BME280;21680;52.400;16.920;2022-11-25T07:28:33;100907.23;;;1.20;92.79
35577;BME280;21680;52.400;16.920;2022-11-25T07:31:12;100913.39;;;1.21;92.92
35577;BME280;21680;52.400;16.920;2022-11-25T07:33:40;100921.31;;;1.24;93.23
35577;BME280;21680;52.400;16.920;2022-11-25T07:36:07;100923.25;;;1.24;93.08
35577;BME280;21680;52.400;16.920;2022-11-25T07:38:33;100921.66;;;1.24;93.04
35577;BME280;21680;52.400;16.920;2022-11-25T07:41:11;100918.84;;;1.25;92.96
35577;BME280;21680;52.400;16.920;2022-11-25T07:43:37;100922.02;;;1.27;93.28
35577;BME280;21680;52.400;16.920;2022-11-25T07:46:09;100922.19;;;1.28;93.24
35577;BME280;21680;52.400;16.920;2022-11-25T07:48:35;100922.36;;;1.30;92.98
35577;BME280;21680;52.400;16.920;2022-11-25T07:51:00;100924.64;;;1.33;93.21
35577;BME280;21680;52.400;16.920;2022-11-25T07:53:26;100926.05;;;1.34;93.14
35577;BME280;21680;52.400;16.920;2022-11-25T07:55:51;100926.41;;;1.34;93.01
35577;BME280;21680;52.400;16.920;2022-11-25T07:58:16;100928.70;;;1.33;93.12
35577;BME280;21680;52.400;16.920;2022-11-25T08:00:41;100931.52;;;1.33;93.10
35577;BME280;21680;52.400;16.920;2022-11-25T08:03:06;100928.69;;;1.36;93.19
35577;BME280;21680;52.400;16.920;2022-11-25T08:05:32;100934.33;;;1.38;93.18
35577;BME280;21680;52.400;16.920;2022-11-25T08:07:57;100940.29;;;1.41;93.20
35577;BME280;21680;52.400;16.920;2022-11-25T08:10:23;100939.59;;;1.45;93.28
35577;BME280;21680;52.400;16.920;2022-11-25T08:12:48;100938.54;;;1.46;93.33
35577;BME280;21680;52.400;16.920;2022-11-25T08:15:13;100948.21;;;1.47;93.27
35577;BME280;21680;52.400;16.920;2022-11-25T08:17:39;100947.16;;;1.50;93.24
35577;BME280;21680;52.400;16.920;2022-11-25T08:20:05;100949.27;;;1.52;93.25
35577;BME280;21680;52.400;16.920;2022-11-25T08:22:30;100948.91;;;1.54;93.31
35577;BME280;21680;52.400;16.920;2022-11-25T08:24:55;100950.66;;;1.58;93.37
35577;BME280;21680;52.400;16.920;2022-11-25T08:27:21;100944.66;;;1.60;93.35
35577;BME280;21680;52.400;16.920;2022-11-25T08:29:46;100943.96;;;1.62;93.12
35577;BME280;21680;52.400;16.920;2022-11-25T08:32:11;100937.96;;;1.64;93.28
35577;BME280;21680;52.400;16.920;2022-11-25T08:34:36;100941.66;;;1.67;93.24
35577;BME280;21680;52.400;16.920;2022-11-25T08:37:02;100938.84;;;1.67;93.09
35577;BME280;21680;52.400;16.920;2022-11-25T08:39:27;100936.19;;;1.70;93.38
35577;BME280;21680;52.400;16.920;2022-11-25T08:41:53;100938.11;;;1.77;93.38
35577;BME280;21680;52.400;16.920;2022-11-25T08:44:19;100942.68;;;1.79;93.35
35577;BME280;21680;52.400;16.920;2022-11-25T08:46:44;100938.98;;;1.83;93.37
35577;BME280;21680;52.400;16.920;2022-11-25T08:49:10;100940.20;;;1.87;93.39
35577;BME280;21680;52.400;16.920;2022-11-25T08:51:37;100940.20;;;1.88;93.27
35577;BME280;21680;52.400;16.920;2022-11-25T08:54:05;100943.20;;;1.86;93.25
35577;BME280;21680;52.400;16.920;2022-11-25T08:56:31;100950.59;;;1.87;93.24
35577;BME280;21680;52.400;16.920;2022-11-25T08:58:56;100953.23;;;1.87;93.46
35577;BME280;21680;52.400;16.920;2022-11-25T09:01:23;100952.88;;;1.87;93.39
35577;BME280;21680;52.400;16.920;2022-11-25T09:03:50;100949.00;;;1.87;93.45
35577;BME280;21680;52.400;16.920;2022-11-25T09:06:17;100953.23;;;1.89;93.33
35577;BME280;21680;52.400;16.920;2022-11-25T09:08:44;100953.05;;;1.89;93.43
35577;BME280;21680;52.400;16.920;2022-11-25T09:11:10;100953.23;;;1.89;93.27
35577;BME280;21680;52.400;16.920;2022-11-25T09:13:35;100948.29;;;1.91;93.40
35577;BME280;21680;52.400;16.920;2022-11-25T09:16:01;100951.80;;;1.93;93.37
35577;BME280;21680;52.400;16.920;2022-11-25T09:18:27;100951.45;;;1.95;93.21
35577;BME280;21680;52.400;16.920;2022-11-25T09:20:55;100949.67;;;2.00;93.36
35577;BME280;21680;52.400;16.920;2022-11-25T09:23:21;100958.29;;;2.03;93.43
35577;BME280;21680;52.400;16.920;2022-11-25T09:25:52;100961.98;;;2.05;93.27
35577;BME280;21680;52.400;16.920;2022-11-25T09:28:19;100963.40;;;2.04;93.34
35577;BME280;21680;52.400;16.920;2022-11-25T09:30:44;100959.53;;;2.01;93.24
35577;BME280;21680;52.400;16.920;2022-11-25T09:33:09;100956.19;;;2.00;93.36
35577;BME280;21680;52.400;16.920;2022-11-25T09:35:35;100953.71;;;2.03;93.32
35577;BME280;21680;52.400;16.920;2022-11-25T09:38:00;100946.83;;;2.05;93.33
35577;BME280;21680;52.400;16.920;2022-11-25T09:46:20;100948.23;;;2.10;93.41
35577;BME280;21680;52.400;16.920;2022-11-25T09:54:29;100958.10;;;2.09;93.28
35577;BME280;21680;52.400;16.920;2022-11-25T09:57:18;100955.45;;;2.11;93.14
35577;BME280;21680;52.400;16.920;2022-11-25T09:59:53;100952.44;;;2.13;93.37
35577;BME280;21680;52.400;16.920;2022-11-25T10:02:36;100960.17;;;2.17;93.53
35577;BME280;21680;52.400;16.920;2022-11-25T10:05:25;100954.70;;;2.20;93.51
35577;BME280;21680;52.400;16.920;2022-11-25T10:07:57;100952.23;;;2.20;93.28
35577;BME280;21680;52.400;16.920;2022-11-25T10:10:29;100956.09;;;2.25;93.54
35577;BME280;21680;52.400;16.920;2022-11-25T10:12:56;100955.54;;;2.30;93.47
35577;BME280;21680;52.400;16.920;2022-11-25T10:15:29;100953.04;;;2.35;93.57
35577;BME280;21680;52.400;16.920;2022-11-25T10:17:59;100958.13;;;2.42;93.59
35577;BME280;21680;52.400;16.920;2022-11-25T10:20:36;100957.55;;;2.50;93.71
35577;BME280;21680;52.400;16.920;2022-11-25T10:23:09;100960.34;;;2.56;93.51
35577;BME280;21680;52.400;16.920;2022-11-25T10:25:38;100959.62;;;2.59;93.56
35577;BME280;21680;52.400;16.920;2022-11-25T10:28:29;100962.03;;;2.63;93.45
35577;BME280;21680;52.400;16.920;2022-11-25T10:33:49;100973.10;;;2.70;93.63
35577;BME280;21680;52.400;16.920;2022-11-25T10:36:19;100971.15;;;2.72;93.56
35577;BME280;21680;52.400;16.920;2022-11-25T10:39:05;100971.46;;;2.78;93.68
35577;BME280;21680;52.400;16.920;2022-11-25T10:41:47;100969.02;;;2.76;93.33
35577;BME280;21680;52.400;16.920;2022-11-25T10:44:22;100973.23;;;2.80;93.66
35577;BME280;21680;52.400;16.920;2022-11-25T10:52:12;100974.34;;;2.96;93.61
35577;BME280;21680;52.400;16.920;2022-11-25T10:54:39;100975.55;;;3.02;93.63
35577;BME280;21680;52.400;16.920;2022-11-25T10:57:19;100979.58;;;3.06;93.47
35577;BME280;21680;52.400;16.920;2022-11-25T10:59:56;100979.92;;;3.05;93.48
35577;BME280;21680;52.400;16.920;2022-11-25T11:07:40;100979.90;;;3.09;93.23
35577;BME280;21680;52.400;16.920;2022-11-25T11:10:21;100977.25;;;3.09;93.41
35577;BME280;21680;52.400;16.920;2022-11-25T11:17:58;100966.39;;;3.21;93.50
35577;BME280;21680;52.400;16.920;2022-11-25T11:20:26;100966.70;;;3.26;93.57
35577;BME280;21680;52.400;16.920;2022-11-25T11:23:16;100967.88;;;3.33;93.52
35577;BME280;21680;52.400;16.920;2022-11-25T11:26:00;100971.72;;;3.37;93.46
35577;BME280;21680;52.400;16.920;2022-11-25T11:28:30;100977.70;;;3.40;93.43
35577;BME280;21680;52.400;16.920;2022-11-25T11:33:42;100969.39;;;3.42;93.23
35577;BME280;21680;52.400;16.920;2022-11-25T11:36:29;100966.66;;;3.50;93.44
35577;BME280;21680;52.400;16.920;2022-11-25T11:42:08;100972.83;;;3.71;93.52
35577;BME280;21680;52.400;16.920;2022-11-25T11:45:23;100973.45;;;3.78;93.66
35577;BME280;21680;52.400;16.920;2022-11-25T11:47:58;100970.57;;;3.83;93.47
35577;BME280;21680;52.400;16.920;2022-11-25T11:50:34;100972.13;;;3.86;93.38
35577;BME280;21680;52.400;16.920;2022-11-25T11:58:41;100968.67;;;3.79;93.05
35577;BME280;21680;52.400;16.920;2022-11-25T12:01:30;100971.69;;;3.78;93.18
35577;BME280;21680;52.400;16.920;2022-11-25T12:07:09;100971.02;;;3.74;93.05
35577;BME280;21680;52.400;16.920;2022-11-25T12:09:39;100966.41;;;3.76;93.12
35577;BME280;21680;52.400;16.920;2022-11-25T12:12:09;100962.79;;;3.83;93.31
35577;BME280;21680;52.400;16.920;2022-11-25T12:14:42;100963.45;;;3.87;93.23
35577;BME280;21680;52.400;16.920;2022-11-25T12:17:33;100965.65;;;3.80;92.77
35577;BME280;21680;52.400;16.920;2022-11-25T12:20:16;100962.77;;;3.85;93.18
35577;BME280;21680;52.400;16.920;2022-11-25T12:23:09;100962.16;;;3.92;93.11
35577;BME280;21680;52.400;16.920;2022-11-25T12:25:40;100959.95;;;4.00;93.28
35577;BME280;21680;52.400;16.920;2022-11-25T12:33:48;100950.91;;;4.17;93.17
35577;BME280;21680;52.400;16.920;2022-11-25T12:36:25;100950.08;;;4.26;93.11
35577;BME280;21680;52.400;16.920;2022-11-25T12:39:04;100953.06;;;4.29;92.97
35577;BME280;21680;52.400;16.920;2022-11-25T12:41:53;100951.30;;;4.28;92.85
35577;BME280;21680;52.400;16.920;2022-11-25T12:44:29;100946.71;;;4.28;93.01
35577;BME280;21680;52.400;16.920;2022-11-25T12:46:56;100947.55;;;4.31;92.93
35577;BME280;21680;52.400;16.920;2022-11-25T12:49:27;100951.58;;;4.34;92.88
35577;BME280;21680;52.400;16.920;2022-11-25T12:55:08;100952.55;;;4.40;92.83
35577;BME280;21680;52.400;16.920;2022-11-25T13:00:21;100955.13;;;4.33;92.74
35577;BME280;21680;52.400;16.920;2022-11-25T13:05:54;100959.89;;;4.34;92.72
35577;BME280;21680;52.400;16.920;2022-11-25T13:16:48;100970.52;;;4.33;92.82
35577;BME280;21680;52.400;16.920;2022-11-25T13:19:17;100971.95;;;4.31;92.73
35577;BME280;21680;52.400;16.920;2022-11-25T13:22:01;100976.87;;;4.35;92.78
35577;BME280;21680;52.400;16.920;2022-11-25T13:24:39;100976.63;;;4.40;92.84
35577;BME280;21680;52.400;16.920;2022-11-25T13:27:29;100979.80;;;4.41;92.59
35577;BME280;21680;52.400;16.920;2022-11-25T13:29:55;100984.73;;;4.42;92.64
35577;BME280;21680;52.400;16.920;2022-11-25T13:32:29;100985.48;;;4.39;92.40
35577;BME280;21680;52.400;16.920;2022-11-25T13:37:45;100988.61;;;4.29;92.55
35577;BME280;21680;52.400;16.920;2022-11-25T13:42:54;100986.27;;;4.32;92.60
35577;BME280;21680;52.400;16.920;2022-11-25T13:45:41;100986.27;;;4.33;92.51
35577;BME280;21680;52.400;16.920;2022-11-25T13:48:28;100987.85;;;4.33;92.53
35577;BME280;21680;52.400;16.920;2022-11-25T13:51:26;100983.78;;;4.34;92.44
35577;BME280;21680;52.400;16.920;2022-11-25T13:54:05;100986.24;;;4.34;92.52
35577;BME280;21680;52.400;16.920;2022-11-25T13:56:35;100991.89;;;4.37;92.53
35577;BME280;21680;52.400;16.920;2022-11-25T14:04:12;101000.10;;;4.30;92.20
35577;BME280;21680;52.400;16.920;2022-11-25T14:09:31;101001.90;;;4.28;92.25
35577;BME280;21680;52.400;16.920;2022-11-25T14:14:48;101010.44;;;4.23;92.26
35577;BME280;21680;52.400;16.920;2022-11-25T14:20:24;101008.95;;;4.14;92.17
35577;BME280;21680;52.400;16.920;2022-11-25T14:23:36;101005.66;;;4.07;92.06
35577;BME280;21680;52.400;16.920;2022-11-25T14:26:09;101005.52;;;4.06;92.26
35577;BME280;21680;52.400;16.920;2022-11-25T14:28:45;101007.11;;;4.04;92.14
35577;BME280;21680;52.400;16.920;2022-11-25T14:31:19;101013.99;;;4.06;92.17
35577;BME280;21680;52.400;16.920;2022-11-25T14:33:57;101011.71;;;4.04;92.11
35577;BME280;21680;52.400;16.920;2022-11-25T14:36:28;101011.20;;;4.03;91.97
35577;BME280;21680;52.400;16.920;2022-11-25T14:38:58;101014.60;;;4.00;92.09